Time;durP1;ratioP1;P1;durP2;ratioP2;P2;SDS_P1;SDS_P2;PMS_P1;PMS_P2;Temp;Humidity;BMP_temperature;BMP_pressure;BME280_temperature;BME280_humidity;BME280_pressure;Samples;Min_cycle;Max_cycle;Signal;HPM_P1;HPM_P2
2023/01/10 00:00:39;;;;;;;24.92;5.15;;;5.10;99.90;;;;;;4966573;28;20471;-78
2023/01/10 00:03:07;;;;;;;19.52;4.88;;;5.10;99.90;;;;;;4967000;28;20386;-78
2023/01/10 00:05:36;;;;;;;20.20;5.47;;;5.10;99.90;;;;;;4967539;28;20492;-79
2023/01/10 00:08:04;;;;;;;23.00;5.70;;;5.00;99.90;;;;;;4965769;28;20101;-78
2023/01/10 00:10:30;;;;;;;26.15;5.32;;;5.00;99.90;;;;;;4985583;28;20602;-78
2023/01/10 00:15:41;;;;;;;18.75;5.30;;;5.00;99.90;;;;;;4975363;28;20501;-78
2023/01/10 00:18:07;;;;;;;21.92;5.50;;;5.00;99.90;;;;;;4972774;28;20049;-78
2023/01/10 00:20:33;;;;;;;20.92;5.03;;;5.00;99.90;;;;;;4991546;28;20042;-78
2023/01/10 00:22:59;;;;;;;18.58;4.78;;;5.00;99.90;;;;;;4972219;28;20061;-78
2023/01/10 00:25:26;;;;;;;23.75;5.20;;;5.00;99.90;;;;;;4960497;28;20038;-78
2023/01/10 00:28:38;;;;;;;20.38;4.90;;;5.10;99.90;;;;;;4987471;28;20101;-78
2023/01/10 00:30:39;;;;;;;19.40;5.38;;;5.10;99.90;;;;;;4978172;28;20050;-78
2023/01/10 00:33:06;;;;;;;20.35;4.28;;;5.10;99.90;;;;;;4969581;28;20101;-79
2023/01/10 00:35:32;;;;;;;20.42;4.82;;;5.10;99.90;;;;;;4988887;28;20492;-78
2023/01/10 00:38:04;;;;;;;20.10;4.32;;;5.10;99.90;;;;;;4989441;28;20178;-79
2023/01/10 00:40:33;;;;;;;19.30;4.95;;;5.20;99.90;;;;;;4973533;28;20182;-78
2023/01/10 00:45:45;;;;;;;18.02;4.80;;;5.20;99.90;;;;;;4987163;28;20060;-78
2023/01/10 00:48:15;;;;;;;20.60;5.10;;;5.30;99.90;;;;;;4988252;28;20042;-79
2023/01/10 00:50:41;;;;;;;22.23;5.85;;;5.30;99.90;;;;;;4986586;28;20129;-79
2023/01/10 00:53:07;;;;;;;19.60;4.90;;;5.30;99.90;;;;;;4974994;28;20185;-78
2023/01/10 00:55:37;;;;;;;20.33;5.43;;;5.40;99.90;;;;;;4989285;28;20133;-79
2023/01/10 00:58:03;;;;;;;22.50;5.85;;;5.50;99.90;;;;;;4972096;28;20884;-78
2023/01/10 01:00:29;;;;;;;26.80;5.78;;;5.50;99.90;;;;;;4989575;28;20046;-78
2023/01/10 01:02:55;;;;;;;22.38;5.95;;;5.50;99.90;;;;;;4989789;28;20238;-79
2023/01/10 01:05:21;;;;;;;21.55;5.18;;;5.60;99.90;;;;;;4986550;28;20169;-79
2023/01/10 01:07:51;;;;;;;29.15;5.75;;;5.60;99.90;;;;;;4972526;28;20046;-79
2023/01/10 01:10:26;;;;;;;20.33;5.25;;;5.60;99.90;;;;;;4973235;28;20447;-79
2023/01/10 01:13:18;;;;;;;24.65;5.70;;;5.60;99.90;;;;;;4975013;28;20133;-79
2023/01/10 01:15:44;;;;;;;22.00;5.05;;;5.70;99.90;;;;;;4974523;28;20105;-79
2023/01/10 01:18:13;;;;;;;20.60;6.03;;;5.60;99.90;;;;;;4988782;28;20050;-79
2023/01/10 01:20:40;;;;;;;21.95;5.47;;;5.60;99.90;;;;;;4988014;28;20317;-79
2023/01/10 01:23:06;;;;;;;20.83;4.85;;;5.60;99.90;;;;;;4963864;28;20065;-79
2023/01/10 01:25:32;;;;;;;20.70;5.85;;;5.60;99.90;;;;;;4985614;28;20117;-78
2023/01/10 01:27:58;;;;;;;19.75;5.47;;;5.70;99.90;;;;;;4966964;28;20060;-78
2023/01/10 01:30:24;;;;;;;26.60;5.53;;;5.70;99.90;;;;;;4970525;28;20042;-78
2023/01/10 01:32:49;;;;;;;19.52;4.85;;;5.70;99.90;;;;;;4969112;28;20133;-78
2023/01/10 01:35:16;;;;;;;18.17;4.57;;;5.80;99.90;;;;;;4968632;28;20710;-78
2023/01/10 01:37:43;;;;;;;20.13;4.32;;;5.80;99.90;;;;;;4984830;28;20093;-78
2023/01/10 01:40:20;;;;;;;19.98;5.07;;;5.80;99.90;;;;;;4986087;28;20104;-78
2023/01/10 01:42:54;;;;;;;18.00;4.65;;;5.90;99.90;;;;;;4969819;28;20089;-78
2023/01/10 01:45:23;;;;;;;19.38;4.55;;;5.80;99.90;;;;;;4969624;28;20492;-78
2023/01/10 01:47:56;;;;;;;15.90;4.32;;;5.80;99.90;;;;;;4984339;28;20052;-78
2023/01/10 01:50:31;;;;;;;13.57;3.72;;;5.70;99.90;;;;;;4981152;28;20034;-78
2023/01/10 01:52:59;;;;;;;18.48;4.13;;;5.70;99.90;;;;;;4986790;28;20118;-78
2023/01/10 01:55:28;;;;;;;17.42;4.00;;;5.70;99.90;;;;;;4968595;28;20077;-79
2023/01/10 01:57:58;;;;;;;21.35;4.38;;;5.60;99.90;;;;;;4972039;28;20053;-78
2023/01/10 02:00:24;;;;;;;21.17;4.68;;;5.60;99.90;;;;;;4986920;28;20600;-78
2023/01/10 02:03:01;;;;;;;17.70;4.43;;;5.50;99.90;;;;;;4954144;28;20071;-78
2023/01/10 02:05:28;;;;;;;17.67;4.32;;;5.50;99.90;;;;;;4985266;28;20042;-80
2023/01/10 02:07:56;;;;;;;17.70;4.85;;;5.50;99.90;;;;;;4967927;28;20058;-80
2023/01/10 02:10:35;;;;;;;20.88;5.00;;;5.50;99.90;;;;;;4985198;28;20092;-80
2023/01/10 02:13:04;;;;;;;23.60;5.53;;;5.50;99.90;;;;;;4982913;28;20065;-80
2023/01/10 02:15:31;;;;;;;17.38;4.47;;;5.50;99.90;;;;;;4984826;28;20527;-80
2023/01/10 02:18:00;;;;;;;18.38;4.75;;;5.50;99.90;;;;;;4984637;28;20066;-80
2023/01/10 02:20:29;;;;;;;20.70;5.00;;;5.50;99.90;;;;;;4984398;28;20094;-80
2023/01/10 02:23:23;;;;;;;19.63;4.93;;;5.50;99.90;;;;;;4979064;28;20056;-79
2023/01/10 02:26:08;;;;;;;19.85;4.95;;;5.50;99.90;;;;;;4964466;28;20056;-80
2023/01/10 02:29:01;;;;;;;19.98;4.55;;;5.50;99.90;;;;;;4967833;28;20045;-80
2023/01/10 02:31:51;;;;;;;23.45;5.25;;;5.50;99.90;;;;;;4984187;28;20049;-79
2023/01/10 02:34:36;;;;;;;16.80;4.40;;;5.50;99.90;;;;;;4983992;28;20065;-79
2023/01/10 02:37:23;;;;;;;17.15;4.68;;;5.40;99.90;;;;;;4962732;28;20050;-80
2023/01/10 02:40:08;;;;;;;19.10;4.32;;;5.50;99.90;;;;;;4985124;28;20053;-80
2023/01/10 02:43:02;;;;;;;19.42;4.80;;;5.40;99.90;;;;;;4983433;28;20057;-80
2023/01/10 02:45:35;;;;;;;18.60;4.68;;;5.50;99.90;;;;;;4984972;28;20096;-79
2023/01/10 02:48:01;;;;;;;18.52;4.25;;;5.40;99.90;;;;;;4984024;28;20042;-79
2023/01/10 02:50:28;;;;;;;21.30;5.60;;;5.40;99.90;;;;;;4967280;28;20041;-79
2023/01/10 02:52:59;;;;;;;20.00;5.28;;;5.40;99.90;;;;;;4984148;28;20054;-79
2023/01/10 02:55:41;;;;;;;20.65;4.22;;;5.40;99.90;;;;;;4968332;28;20108;-80
2023/01/10 02:58:29;;;;;;;21.60;5.28;;;5.40;99.90;;;;;;4983107;28;20133;-78
2023/01/10 03:01:39;;;;;;;20.10;5.00;;;5.50;99.90;;;;;;4996305;28;20474;-79
2023/01/10 03:04:33;;;;;;;19.77;4.90;;;5.40;99.90;;;;;;4954196;28;20055;-79
2023/01/10 03:07:08;;;;;;;19.38;5.13;;;5.40;99.90;;;;;;4933883;28;20054;-79
2023/01/10 03:09:45;;;;;;;20.75;5.07;;;5.40;99.90;;;;;;4967158;28;20409;-78
2023/01/10 03:12:47;;;;;;;22.95;5.25;;;5.40;99.90;;;;;;4985374;28;20038;-80
2023/01/10 03:15:17;;;;;;;26.10;5.78;;;5.50;99.90;;;;;;4940838;28;20595;-79
2023/01/10 03:17:48;;;;;;;23.77;5.97;;;5.50;99.90;;;;;;4985432;28;20497;-79
2023/01/10 03:20:14;;;;;;;22.60;5.55;;;5.50;99.90;;;;;;4983791;28;20046;-79
2023/01/10 03:22:42;;;;;;;21.98;5.35;;;5.50;99.90;;;;;;4970425;28;20042;-79
2023/01/10 03:25:10;;;;;;;23.25;5.95;;;5.60;99.90;;;;;;4983071;28;20042;-79
2023/01/10 03:28:04;;;;;;;22.98;5.70;;;5.60;99.90;;;;;;4969539;28;20176;-79
2023/01/10 03:30:54;;;;;;;27.92;6.22;;;5.70;99.90;;;;;;4968659;28;20052;-79
2023/01/10 03:33:26;;;;;;;17.15;5.50;;;5.70;99.90;;;;;;5000174;28;20108;-80
2023/01/10 03:36:15;;;;;;;20.40;5.15;;;5.70;99.90;;;;;;4984057;28;20055;-79
2023/01/10 03:39:14;;;;;;;24.02;5.82;;;5.70;99.90;;;;;;4982638;28;20055;-79
2023/01/10 03:41:50;;;;;;;25.80;6.22;;;5.70;99.90;;;;;;4930866;28;20062;-78
2023/01/10 03:47:24;;;;;;;21.90;6.13;;;5.70;99.90;;;;;;4984629;28;20046;-78
2023/01/10 03:49:57;;;;;;;23.17;6.45;;;5.80;99.90;;;;;;4965887;28;20054;-78
2023/01/10 03:52:24;;;;;;;22.60;5.13;;;5.80;99.90;;;;;;4968744;28;20133;-78
2023/01/10 03:54:50;;;;;;;21.27;6.22;;;5.80;99.90;;;;;;4950901;28;20096;-78
2023/01/10 03:57:19;;;;;;;26.55;6.65;;;5.80;99.90;;;;;;4953019;28;20513;-78
2023/01/10 03:59:46;;;;;;;21.08;6.00;;;5.80;99.90;;;;;;4968428;28;20112;-79
2023/01/10 04:02:12;;;;;;;21.45;5.63;;;5.80;99.90;;;;;;4995337;28;20053;-77
2023/01/10 04:04:37;;;;;;;25.52;6.35;;;5.80;99.90;;;;;;4953124;28;20046;-80
2023/01/10 04:07:03;;;;;;;30.08;6.68;;;5.80;99.90;;;;;;4966431;28;20070;-72
2023/01/10 04:09:30;;;;;;;23.50;5.70;;;5.80;99.90;;;;;;4938084;28;20046;-72
2023/01/10 04:11:56;;;;;;;21.10;5.38;;;5.80;99.90;;;;;;4951269;28;20043;-72
2023/01/10 04:14:22;;;;;;;22.02;5.43;;;5.80;99.90;;;;;;4984914;28;20284;-72
2023/01/10 04:16:48;;;;;;;18.70;5.22;;;5.80;99.90;;;;;;4968357;28;20485;-72
2023/01/10 04:19:13;;;;;;;14.07;4.47;;;5.70;99.90;;;;;;4984956;28;20050;-72
2023/01/10 04:21:39;;;;;;;21.23;5.28;;;5.70;99.90;;;;;;4948356;28;20125;-70
2023/01/10 04:24:05;;;;;;;19.45;5.72;;;5.70;99.90;;;;;;4952063;28;20042;-71
2023/01/10 04:26:31;;;;;;;20.48;6.30;;;5.70;99.90;;;;;;4968208;28;20125;-71
2023/01/10 04:28:57;;;;;;;21.63;6.40;;;5.80;99.90;;;;;;4953001;28;20133;-71
2023/01/10 04:31:23;;;;;;;21.50;7.55;;;5.80;99.90;;;;;;4967061;28;20082;-71
2023/01/10 04:33:49;;;;;;;20.95;7.07;;;5.80;99.90;;;;;;4964590;28;20050;-71
2023/01/10 04:36:14;;;;;;;22.35;7.47;;;5.80;99.90;;;;;;4983022;28;20042;-71
2023/01/10 04:38:40;;;;;;;23.95;7.25;;;5.90;99.90;;;;;;4958884;28;20062;-71
2023/01/10 04:41:06;;;;;;;26.58;8.05;;;5.90;99.90;;;;;;4968781;28;20421;-71
2023/01/10 04:43:32;;;;;;;26.67;7.93;;;5.90;99.90;;;;;;4950604;28;20078;-72
2023/01/10 04:45:58;;;;;;;21.83;7.90;;;5.90;99.90;;;;;;4927265;28;20085;-73
2023/01/10 04:48:25;;;;;;;23.58;7.47;;;5.90;99.90;;;;;;4954796;28;20045;-78
2023/01/10 04:50:53;;;;;;;27.60;7.63;;;5.90;99.90;;;;;;4936758;28;20053;-78
2023/01/10 04:53:19;;;;;;;28.20;7.72;;;6.00;99.90;;;;;;4968820;28;20096;-78
2023/01/10 04:55:46;;;;;;;26.17;7.78;;;6.00;99.90;;;;;;4968979;28;20571;-77
2023/01/10 04:58:12;;;;;;;21.95;8.07;;;6.00;99.90;;;;;;4965958;28;20047;-77
2023/01/10 05:00:38;;;;;;;32.60;8.27;;;6.00;99.90;;;;;;4957877;28;20093;-78
2023/01/10 05:03:04;;;;;;;32.05;8.43;;;6.00;99.90;;;;;;4986201;28;20124;-79
2023/01/10 05:05:31;;;;;;;27.50;8.20;;;6.00;99.90;;;;;;4989156;28;20493;-78
2023/01/10 05:07:57;;;;;;;28.20;7.95;;;6.00;99.90;;;;;;4986874;28;20058;-71
2023/01/10 05:10:23;;;;;;;26.05;7.28;;;6.00;99.90;;;;;;4955580;28;20703;-71
2023/01/10 05:12:49;;;;;;;24.42;6.18;;;6.00;99.90;;;;;;4981278;28;20057;-71
2023/01/10 05:15:15;;;;;;;28.42;7.65;;;6.00;99.90;;;;;;4968203;28;20046;-71
2023/01/10 05:17:41;;;;;;;22.42;6.57;;;6.00;99.90;;;;;;4986510;28;20057;-71
2023/01/10 05:20:08;;;;;;;31.35;6.65;;;6.00;99.90;;;;;;4986021;28;20457;-71
2023/01/10 05:22:34;;;;;;;34.85;6.95;;;6.00;99.90;;;;;;4970690;28;20046;-71
2023/01/10 05:25:00;;;;;;;27.35;7.60;;;5.90;99.90;;;;;;4969769;28;20058;-71
2023/01/10 05:27:26;;;;;;;30.17;6.95;;;5.90;99.90;;;;;;4936438;28;20034;-71
2023/01/10 05:29:51;;;;;;;29.27;6.32;;;5.90;99.90;;;;;;4952238;28;20043;-72
2023/01/10 05:32:17;;;;;;;27.33;6.55;;;5.90;99.90;;;;;;4971854;28;20122;-71
2023/01/10 05:34:43;;;;;;;25.92;6.95;;;5.90;99.90;;;;;;4952661;28;20054;-71
2023/01/10 05:37:09;;;;;;;28.65;7.85;;;5.90;99.90;;;;;;4970747;28;20429;-72
2023/01/10 05:39:35;;;;;;;28.52;7.50;;;5.90;99.90;;;;;;4967497;28;20074;-72
2023/01/10 05:42:04;;;;;;;32.47;8.07;;;5.90;99.90;;;;;;4971331;28;20099;-71
2023/01/10 05:44:30;;;;;;;33.00;6.97;;;6.00;99.90;;;;;;4968028;28;20093;-72
2023/01/10 05:46:56;;;;;;;22.95;7.30;;;6.00;99.90;;;;;;4954297;28;20047;-71
2023/01/10 05:49:21;;;;;;;30.58;7.55;;;6.00;99.90;;;;;;4970136;28;20046;-71
2023/01/10 05:51:47;;;;;;;25.45;6.95;;;6.00;99.90;;;;;;4967525;28;20042;-72
2023/01/10 05:54:13;;;;;;;26.15;7.65;;;6.00;99.90;;;;;;4953901;28;20469;-72
2023/01/10 05:56:39;;;;;;;23.08;6.63;;;6.00;99.90;;;;;;4984282;28;20046;-71
2023/01/10 05:59:05;;;;;;;35.53;7.90;;;6.00;99.90;;;;;;4949689;28;20401;-72
2023/01/10 06:01:31;;;;;;;29.38;7.43;;;6.00;99.90;;;;;;4952176;28;20120;-72
2023/01/10 06:03:56;;;;;;;28.80;7.47;;;6.00;99.90;;;;;;4965070;28;20137;-73
2023/01/10 06:06:22;;;;;;;35.58;8.23;;;6.00;99.90;;;;;;4950855;28;20658;-73
2023/01/10 06:08:48;;;;;;;34.55;8.10;;;6.10;99.90;;;;;;4957483;28;20077;-73
2023/01/10 06:11:14;;;;;;;41.05;7.55;;;6.10;99.90;;;;;;4969179;28;20042;-73
2023/01/10 06:13:40;;;;;;;30.65;8.25;;;6.10;99.90;;;;;;4985616;28;20503;-73
2023/01/10 06:16:06;;;;;;;38.40;8.93;;;6.10;99.90;;;;;;4953697;28;20042;-72
2023/01/10 06:18:31;;;;;;;26.35;7.35;;;6.10;99.90;;;;;;4968392;28;20046;-72
2023/01/10 06:20:57;;;;;;;33.08;8.50;;;6.10;99.90;;;;;;4963376;28;20607;-73
2023/01/10 06:23:23;;;;;;;29.40;9.73;;;6.10;99.90;;;;;;4957400;28;20378;-73
2023/01/10 06:25:49;;;;;;;27.48;7.93;;;6.10;99.90;;;;;;4965289;28;20125;-73
2023/01/10 06:28:14;;;;;;;17.58;6.10;;;6.10;99.90;;;;;;4987127;28;20048;-73
2023/01/10 06:30:42;;;;;;;27.27;7.15;;;6.10;99.90;;;;;;4967908;28;20037;-73
2023/01/10 06:33:09;;;;;;;22.70;6.38;;;6.10;99.90;;;;;;4954718;28;20108;-73
2023/01/10 06:35:39;;;;;;;22.70;7.28;;;6.10;99.90;;;;;;4969068;28;20125;-73
2023/01/10 06:38:05;;;;;;;23.83;7.43;;;6.00;99.90;;;;;;4967488;28;20338;-73
2023/01/10 06:40:31;;;;;;;21.67;7.45;;;6.00;99.90;;;;;;4970251;28;20264;-73
2023/01/10 06:42:57;;;;;;;24.08;8.20;;;6.00;99.90;;;;;;4952884;28;20045;-72
2023/01/10 06:45:24;;;;;;;29.55;8.98;;;6.00;99.90;;;;;;4986561;28;20573;-72
2023/01/10 06:47:50;;;;;;;28.58;9.18;;;6.00;99.90;;;;;;4950982;28;20041;-72
2023/01/10 06:50:17;;;;;;;30.27;10.18;;;5.90;99.90;;;;;;4947282;28;20516;-73
2023/01/10 06:52:45;;;;;;;37.38;12.35;;;5.90;99.90;;;;;;4998392;28;20440;-73
2023/01/10 06:55:11;;;;;;;36.10;10.88;;;5.90;99.90;;;;;;4946334;28;20048;-77
2023/01/10 06:57:37;;;;;;;38.38;11.90;;;5.90;99.90;;;;;;4966584;28;20100;-77
2023/01/10 07:00:05;;;;;;;29.95;10.57;;;6.00;99.90;;;;;;4952078;28;20298;-77
2023/01/10 07:02:31;;;;;;;37.60;10.95;;;6.00;99.90;;;;;;4984971;28;20133;-77
2023/01/10 07:04:57;;;;;;;29.88;10.23;;;5.90;99.90;;;;;;4951645;28;20694;-76
2023/01/10 07:07:23;;;;;;;36.35;10.18;;;5.90;99.90;;;;;;4983952;28;20054;-77
2023/01/10 07:09:49;;;;;;;34.97;8.55;;;5.90;99.90;;;;;;4937491;28;20136;-76
2023/01/10 07:12:14;;;;;;;28.55;8.43;;;5.90;99.90;;;;;;4969047;28;20038;-76
2023/01/10 07:14:40;;;;;;;33.58;8.25;;;5.90;99.90;;;;;;4969087;28;20065;-76
2023/01/10 07:17:06;;;;;;;37.70;9.38;;;5.80;99.90;;;;;;4968832;28;20567;-73
2023/01/10 07:19:32;;;;;;;32.65;8.20;;;5.80;99.90;;;;;;4986741;28;20572;-73
2023/01/10 07:21:58;;;;;;;30.88;7.72;;;5.80;99.90;;;;;;4967728;28;20045;-74
2023/01/10 07:24:23;;;;;;;30.23;8.25;;;5.70;99.90;;;;;;4969890;28;20053;-74
2023/01/10 07:26:49;;;;;;;32.83;8.75;;;5.70;99.90;;;;;;4951806;28;20442;-74
2023/01/10 07:29:15;;;;;;;37.08;9.23;;;5.70;99.90;;;;;;4985639;28;20037;-74
2023/01/10 07:31:42;;;;;;;39.22;9.23;;;5.70;99.90;;;;;;4970426;28;20045;-74
2023/01/10 07:34:07;;;;;;;29.65;8.18;;;5.70;99.90;;;;;;4969563;28;20093;-74
2023/01/10 07:36:35;;;;;;;38.80;9.05;;;5.70;99.90;;;;;;4954365;28;20456;-74
2023/01/10 07:39:01;;;;;;;31.77;9.10;;;5.70;99.90;;;;;;4964728;28;20061;-76
2023/01/10 07:41:27;;;;;;;33.55;9.23;;;5.60;99.90;;;;;;4987413;28;20312;-76
2023/01/10 07:43:53;;;;;;;36.92;8.98;;;5.70;99.90;;;;;;4985250;28;20547;-76
2023/01/10 07:46:19;;;;;;;27.50;8.95;;;5.60;99.90;;;;;;4987675;28;20042;-76
2023/01/10 07:48:45;;;;;;;27.70;8.63;;;5.70;99.90;;;;;;4953903;28;20037;-76
2023/01/10 07:51:11;;;;;;;33.58;8.77;;;5.70;99.90;;;;;;4972830;28;20045;-76
2023/01/10 07:53:38;;;;;;;31.58;9.30;;;5.70;99.90;;;;;;4970445;28;20045;-76
2023/01/10 07:56:04;;;;;;;31.33;9.02;;;5.70;99.90;;;;;;4969240;28;20042;-76
2023/01/10 07:58:31;;;;;;;33.95;9.40;;;5.70;99.90;;;;;;4969739;28;20045;-75
2023/01/10 08:00:59;;;;;;;30.98;8.90;;;5.70;99.90;;;;;;4954239;28;20085;-75
2023/01/10 08:03:25;;;;;;;29.90;9.35;;;5.70;99.90;;;;;;4986026;28;20060;-74
2023/01/10 08:05:58;;;;;;;26.75;8.30;;;5.70;99.90;;;;;;4986116;28;20061;-75
2023/01/10 08:08:24;;;;;;;26.83;8.88;;;5.70;99.90;;;;;;4968050;28;20054;-74
2023/01/10 08:10:49;;;;;;;29.60;8.73;;;5.70;99.90;;;;;;4968109;28;20054;-74
2023/01/10 08:13:15;;;;;;;28.95;8.68;;;5.80;99.90;;;;;;4966268;28;20604;-74
2023/01/10 08:15:41;;;;;;;30.50;8.80;;;5.80;99.90;;;;;;4951586;28;20053;-75
2023/01/10 08:18:07;;;;;;;28.17;8.57;;;5.80;99.90;;;;;;4965360;28;20054;-74
2023/01/10 08:20:32;;;;;;;28.83;9.13;;;5.80;99.90;;;;;;4968880;28;20047;-74
2023/01/10 08:22:59;;;;;;;32.63;9.13;;;5.80;99.90;;;;;;4966955;28;20493;-74
2023/01/10 08:25:26;;;;;;;30.65;8.98;;;5.80;99.90;;;;;;4981495;28;20048;-75
2023/01/10 08:27:52;;;;;;;30.48;8.43;;;5.80;99.90;;;;;;4980618;28;20050;-75
2023/01/10 08:30:18;;;;;;;32.50;8.43;;;5.80;99.90;;;;;;4967307;28;20390;-74
2023/01/10 08:32:44;;;;;;;31.50;8.48;;;5.90;99.90;;;;;;4981930;28;20050;-75
2023/01/10 08:35:10;;;;;;;33.30;8.68;;;5.90;99.90;;;;;;4984026;28;20042;-74
2023/01/10 08:37:36;;;;;;;35.22;8.88;;;5.90;99.90;;;;;;4970041;28;20413;-74
2023/01/10 08:40:05;;;;;;;37.75;10.15;;;6.00;99.90;;;;;;4956033;28;20045;-74
2023/01/10 08:42:30;;;;;;;35.85;9.45;;;6.00;99.90;;;;;;4968878;28;20051;-74
2023/01/10 08:44:56;;;;;;;33.08;9.75;;;6.00;99.90;;;;;;4971238;28;20046;-74
2023/01/10 08:47:22;;;;;;;28.95;8.20;;;6.10;99.90;;;;;;4970243;28;20050;-74
2023/01/10 08:49:48;;;;;;;34.10;9.48;;;6.10;99.90;;;;;;4969379;28;20050;-74
2023/01/10 08:52:15;;;;;;;31.58;9.98;;;6.20;99.90;;;;;;4969891;28;20089;-74
2023/01/10 08:54:40;;;;;;;34.80;8.80;;;6.20;99.90;;;;;;4987745;28;20047;-74
2023/01/10 08:57:06;;;;;;;33.95;8.52;;;6.10;99.90;;;;;;4986414;28;20374;-74
2023/01/10 08:59:32;;;;;;;23.88;8.15;;;6.10;99.90;;;;;;4983008;28;20112;-74
2023/01/10 09:01:58;;;;;;;23.70;7.28;;;6.10;99.90;;;;;;4970985;28;20046;-74
2023/01/10 09:04:27;;;;;;;29.20;7.40;;;6.10;99.90;;;;;;4969994;28;20052;-74
2023/01/10 09:06:53;;;;;;;32.42;7.88;;;6.10;99.90;;;;;;4987884;28;20142;-74
2023/01/10 09:09:19;;;;;;;27.67;8.13;;;6.10;99.90;;;;;;4954712;28;20582;-74
2023/01/10 09:11:45;;;;;;;29.70;7.47;;;6.10;99.90;;;;;;4957494;28;20260;-76
2023/01/10 09:14:11;;;;;;;27.77;7.55;;;6.10;99.90;;;;;;4973133;28;20078;-76
2023/01/10 09:16:37;;;;;;;26.33;7.90;;;6.10;99.90;;;;;;4955997;28;20049;-75
2023/01/10 09:19:02;;;;;;;25.17;6.57;;;6.20;99.90;;;;;;4989116;28;20056;-76
2023/01/10 09:21:28;;;;;;;27.30;6.85;;;6.20;99.90;;;;;;4954495;28;20269;-76
2023/01/10 09:23:54;;;;;;;27.13;7.30;;;6.20;99.90;;;;;;4989002;28;20693;-76
2023/01/10 09:26:20;;;;;;;29.15;7.45;;;6.40;99.90;;;;;;4986301;28;20045;-76
2023/01/10 09:28:47;;;;;;;28.70;7.85;;;6.20;99.90;;;;;;4974097;28;20428;-76
2023/01/10 09:31:13;;;;;;;30.23;7.82;;;6.30;99.90;;;;;;4985622;28;20045;-76
2023/01/10 09:33:41;;;;;;;32.88;7.82;;;6.30;99.90;;;;;;4973522;28;20848;-76
2023/01/10 09:36:08;;;;;;;26.65;6.88;;;6.40;99.90;;;;;;4969062;28;20581;-77
2023/01/10 09:38:34;;;;;;;32.55;8.15;;;6.40;99.90;;;;;;4957581;28;20061;-76
2023/01/10 09:41:19;;;;;;;29.88;7.78;;;6.40;99.90;;;;;;4988777;28;20484;-76
2023/01/10 09:43:45;;;;;;;33.10;7.35;;;6.40;99.90;;;;;;4973304;28;20539;-76
2023/01/10 09:46:48;;;;;;;29.48;7.72;;;6.40;99.90;;;;;;4988127;28;20166;-76
2023/01/10 09:49:25;;;;;;;24.80;7.15;;;6.50;99.90;;;;;;4972345;28;20111;-76
2023/01/10 09:51:55;;;;;;;26.92;7.82;;;6.50;99.90;;;;;;4987077;28;20049;-76
2023/01/10 09:54:31;;;;;;;30.33;8.30;;;6.50;99.90;;;;;;4958907;28;20042;-76
2023/01/10 09:56:59;;;;;;;33.00;8.07;;;6.60;99.90;;;;;;4988293;28;20046;-77
2023/01/10 09:59:37;;;;;;;31.58;8.18;;;6.60;99.90;;;;;;4988947;28;20049;-77
2023/01/10 10:02:33;;;;;;;23.13;7.55;;;6.70;99.90;;;;;;4988072;28;20129;-77
2023/01/10 10:05:26;;;;;;;30.70;7.72;;;6.70;99.90;;;;;;4971496;28;20519;-76
2023/01/10 10:08:01;;;;;;;25.75;6.90;;;6.80;99.90;;;;;;4968485;28;20061;-78
2023/01/10 10:10:37;;;;;;;28.75;7.60;;;6.80;99.90;;;;;;4971547;28;20417;-76
2023/01/10 10:13:30;;;;;;;23.73;7.65;;;6.80;99.90;;;;;;4986884;28;20050;-77
2023/01/10 10:16:05;;;;;;;33.13;7.88;;;6.90;99.90;;;;;;4969452;28;20099;-77
2023/01/10 10:18:37;;;;;;;27.98;7.38;;;6.90;99.90;;;;;;4988931;28;20092;-76
2023/01/10 10:21:27;;;;;;;28.90;7.47;;;6.90;99.90;;;;;;4974126;28;20100;-77
2023/01/10 10:24:35;;;;;;;32.42;8.23;;;7.00;99.90;;;;;;4988738;28;20524;-76
2023/01/10 10:27:12;;;;;;;24.58;9.05;;;7.00;99.90;;;;;;4960369;28;20145;-78
2023/01/10 10:29:52;;;;;;;26.95;7.78;;;7.00;99.90;;;;;;4970387;28;20867;-75
2023/01/10 10:32:41;;;;;;;25.92;8.68;;;7.00;99.90;;;;;;4989231;28;20030;-78
2023/01/10 10:35:20;;;;;;;31.05;9.35;;;7.00;99.90;;;;;;4971880;28;20545;-76
2023/01/10 10:37:49;;;;;;;28.52;9.65;;;7.00;99.90;;;;;;4987284;28;20057;-76
2023/01/10 10:40:21;;;;;;;34.63;11.68;;;7.10;99.90;;;;;;4989162;28;20046;-73
2023/01/10 10:42:54;;;;;;;33.45;11.80;;;7.10;99.90;;;;;;4986730;28;20108;-73
2023/01/10 10:45:39;;;;;;;34.97;12.15;;;7.00;99.90;;;;;;4971105;28;20342;-73
2023/01/10 10:48:24;;;;;;;37.08;13.02;;;7.00;99.90;;;;;;4972908;28;20507;-73
2023/01/10 10:51:09;;;;;;;32.90;13.52;;;7.00;99.90;;;;;;4971611;28;20042;-73
2023/01/10 10:53:35;;;;;;;30.92;13.18;;;7.00;99.90;;;;;;4971414;28;20145;-73
2023/01/10 10:56:03;;;;;;;32.78;14.52;;;7.10;99.90;;;;;;4986791;28;20046;-74
2023/01/10 10:58:30;;;;;;;32.72;14.80;;;7.10;99.90;;;;;;4971358;28;20125;-73
2023/01/10 11:00:57;;;;;;;37.95;15.10;;;7.10;99.90;;;;;;4985890;28;20046;-74
2023/01/10 11:03:35;;;;;;;29.13;14.98;;;7.10;99.90;;;;;;4970364;28;20073;-75
2023/01/10 11:06:01;;;;;;;34.13;14.82;;;7.10;99.90;;;;;;4968061;28;20053;-75
2023/01/10 11:08:29;;;;;;;34.30;15.82;;;7.10;99.90;;;;;;4970160;28;20050;-75
2023/01/10 11:10:57;;;;;;;30.40;15.60;;;7.10;99.90;;;;;;4968936;28;20347;-78
2023/01/10 11:13:36;;;;;;;34.13;16.67;;;7.10;99.90;;;;;;4971719;28;20112;-78
2023/01/10 11:16:06;;;;;;;33.30;15.52;;;7.10;99.90;;;;;;4970599;28;20049;-77
2023/01/10 11:18:33;;;;;;;36.77;15.07;;;7.10;99.90;;;;;;4987738;28;20048;-78
2023/01/10 11:21:12;;;;;;;33.00;15.38;;;7.10;99.90;;;;;;4967295;28;20042;-78
2023/01/10 11:23:52;;;;;;;33.58;15.77;;;7.10;99.90;;;;;;4986004;28;20459;-78
2023/01/10 11:26:35;;;;;;;;;;;7.10;99.90;;;;;;4987448;28;20061;-77
2023/01/10 11:29:38;;;;;;;28.08;15.52;;;7.10;99.90;;;;;;4968968;28;19921;-78
2023/01/10 11:32:14;;;;;;;32.65;14.88;;;7.00;99.90;;;;;;4959785;28;20045;-77
2023/01/10 11:34:46;;;;;;;29.50;14.57;;;7.00;99.90;;;;;;4970575;28;20053;-78
2023/01/10 11:37:15;;;;;;;32.58;13.50;;;7.10;99.90;;;;;;4986482;28;20124;-78
2023/01/10 11:39:41;;;;;;;27.55;11.80;;;7.10;99.90;;;;;;4971073;28;20061;-78
2023/01/10 11:42:28;;;;;;;32.17;13.38;;;7.10;99.90;;;;;;4987893;28;20042;-78
2023/01/10 11:45:13;;;;;;;29.27;11.88;;;7.10;99.90;;;;;;4970128;28;20041;-77
2023/01/10 11:47:41;;;;;;;34.10;11.45;;;7.10;99.90;;;;;;4973276;28;20046;-79
2023/01/10 11:50:09;;;;;;;27.33;10.93;;;7.10;99.90;;;;;;4986446;28;20593;-77
2023/01/10 11:52:41;;;;;;;28.33;10.50;;;7.10;99.90;;;;;;4986996;28;20042;-77
2023/01/10 11:55:07;;;;;;;38.92;11.15;;;7.10;99.90;;;;;;4987070;28;20535;-77
2023/01/10 11:57:33;;;;;;;30.52;10.25;;;7.10;99.90;;;;;;4986232;28;20037;-77
2023/01/10 12:00:05;;;;;;;32.70;9.75;;;7.10;99.90;;;;;;4954734;28;20046;-77
2023/01/10 12:02:39;;;;;;;28.08;9.88;;;7.10;99.90;;;;;;4986573;28;20047;-77
2023/01/10 12:05:16;;;;;;;31.90;10.00;;;7.10;99.90;;;;;;4968586;28;20056;-77
2023/01/10 12:08:06;;;;;;;29.73;9.52;;;7.00;99.90;;;;;;4966284;28;20133;-77
2023/01/10 12:10:34;;;;;;;30.60;9.63;;;7.10;99.90;;;;;;4967503;28;20058;-77
2023/01/10 12:13:13;;;;;;;27.33;9.00;;;7.10;99.90;;;;;;4982213;28;20046;-78
2023/01/10 12:15:39;;;;;;;30.60;9.65;;;7.10;99.90;;;;;;4982965;28;20053;-77
2023/01/10 12:18:06;;;;;;;29.63;8.85;;;7.10;99.90;;;;;;4966679;28;20046;-77
2023/01/10 12:20:40;;;;;;;26.75;8.27;;;7.10;99.90;;;;;;4965946;28;20117;-77
2023/01/10 12:23:11;;;;;;;28.33;8.40;;;7.00;99.90;;;;;;4966973;28;20046;-77
2023/01/10 12:25:40;;;;;;;31.70;9.88;;;7.00;99.90;;;;;;4984944;28;20061;-77
2023/01/10 12:28:27;;;;;;;29.35;7.90;;;7.10;99.90;;;;;;4968575;28;20053;-77
2023/01/10 12:30:57;;;;;;;25.90;8.32;;;7.10;99.90;;;;;;4965756;28;20045;-77
2023/01/10 12:33:37;;;;;;;24.52;8.10;;;7.10;99.90;;;;;;4969067;28;20545;-77
2023/01/10 12:36:47;;;;;;;27.70;8.93;;;7.10;99.90;;;;;;4964975;28;20054;-78
2023/01/10 12:39:20;;;;;;;32.45;8.63;;;7.10;99.90;;;;;;4941757;28;20092;-79
2023/01/10 12:44:51;;;;;;;34.03;9.15;;;7.10;99.90;;;;;;4982122;28;20412;-74
2023/01/10 12:47:29;;;;;;;31.92;9.60;;;7.10;99.90;;;;;;4968728;28;20042;-74
2023/01/10 12:50:16;;;;;;;28.92;8.93;;;7.10;99.90;;;;;;4966349;28;20074;-75
2023/01/10 12:52:55;;;;;;;25.80;7.63;;;7.10;99.90;;;;;;4981537;28;20776;-75
2023/01/10 12:55:26;;;;;;;29.17;8.35;;;7.10;99.90;;;;;;4965163;28;20046;-73
2023/01/10 12:58:02;;;;;;;29.63;8.73;;;7.00;99.90;;;;;;4980862;28;20053;-74
2023/01/10 13:00:45;;;;;;;25.27;8.73;;;7.00;99.90;;;;;;4964362;28;20055;-75
2023/01/10 13:03:15;;;;;;;30.20;9.13;;;7.00;99.90;;;;;;4966422;28;20520;-74
2023/01/10 13:05:42;;;;;;;31.30;9.68;;;7.00;99.90;;;;;;4981757;28;20061;-74
2023/01/10 13:08:14;;;;;;;30.88;10.18;;;7.00;99.90;;;;;;4981584;28;20130;-75
2023/01/10 13:10:47;;;;;;;28.10;9.23;;;7.00;99.90;;;;;;4964921;28;20050;-74
2023/01/10 13:13:34;;;;;;;25.10;8.65;;;7.00;99.90;;;;;;4964092;28;20061;-75
2023/01/10 13:16:30;;;;;;;25.75;9.50;;;7.00;99.90;;;;;;4980549;28;20050;-74